Hauptseite
METAR-TAF:

METAR-TAF

Flughäfen :

Flughafen Erfurt-Weimar

Erfurt, Deutschland

Breite: 50-59N, Länge: 010-58E, Höhe: 315 m

Beobachtung

Neuester Wetterbericht von vor 31 Minuten, um 04:50 UTC
Wind 6 kt aus West
Temperatur 11°C
Luftfeuchtigkeit 87%
Luftdruck 1021 hPa
Sichtweite 10 km oder mehr
keine Wolken unter 1500 m und keine Kumulonimbus oder Gewitterwolken

METAR: EDDE 240450Z 26006KT CAVOK 11/09 Q1021 NOSIG

Zeit: 07:21 (05:21 UTC)

Prognose

Neuester Wetterbericht von vor 6 Stunden und 21 Minuten, um 23:00 UTC
Gültige Prognose vom 24 um 00 UTC bis 24 um 24 UTC
Wind 8 kt aus West/Nordwest
Sichtweite 10 km oder mehr
Durchbrochene Bewölkung in der Höhe von 3000 ft
Wahrscheinlichkeit 30% :
Zeitweise
vom 24 um 03 UTC bis 24 um 08 UTC
Durchbrochene Bewölkung in der Höhe von 1400 ft

TAF: EDDE 232300Z 2400/2424 29008KT 9999 BKN030 PROB30 TEMPO 2403/2408 BKN014

Wetterbeobachtungen und Prognosen von mehr als 4000 Flughäfen (METAR und TAF Bericht).

Die verfügbaren Stationen werden durch gelbe und rote Markierungen auf der Karte dargestellt.

Führen Sie die Maus auf sie, um den Namen der Station zu sehen.

Darauf klicken, um die Beobachtung von Wetterbeobachtungen und Prognosen zu sehen.

Um die Karte zu ändern : klicken Sie auf den grünen Tasten mit einem schwarzen Kreuz Zum Vergrößern, auf den grünen Button mit einem Gedankenstrich zu verkleinern, oder auf die grünen Pfeile für benachbarte Karten.


METAR-TAF: